Time;durP1;ratioP1;P1;durP2;ratioP2;P2;SDS_P1;SDS_P2;PMS_P1;PMS_P2;Temp;Humidity;BMP_temperature;BMP_pressure;BME280_temperature;BME280_humidity;BME280_pressure;Samples;Min_cycle;Max_cycle;Signal;HPM_P1;HPM_P2
2022/10/24 04:01:35;;;;;;;1999.90;999.90;;;;;;;;;;5669550;22;20245;-65
2022/10/24 04:04:20;;;;;;;1999.90;999.90;;;;;;;;;;5007351;28;20226;-64
2022/10/24 04:07:05;;;;;;;1999.90;999.90;;;;;;;;;;5014848;28;20218;-66
2022/10/24 04:09:50;;;;;;;1999.90;999.90;;;;;;;;;;5014857;28;20201;-66
2022/10/24 04:12:35;;;;;;;1999.90;999.90;;;;;;;;;;5014838;28;20225;-65
2022/10/24 04:15:20;;;;;;;1999.90;999.90;;;;;;;;;;5014221;28;20285;-66
2022/10/24 04:18:07;;;;;;;1999.90;999.90;;;;;;;;;;5014775;28;20344;-65
2022/10/24 04:20:52;;;;;;;1999.90;999.90;;;;;;;;;;5014688;28;20724;-65
2022/10/24 04:23:39;;;;;;;1999.90;999.90;;;;;;;;;;5014616;28;20216;-65
2022/10/24 04:26:24;;;;;;;1999.90;999.90;;;;;;;;;;5014415;28;20210;-66
2022/10/24 04:29:09;;;;;;;1999.90;999.90;;;;;;;;;;5014327;28;20210;-66
2022/10/24 04:31:54;;;;;;;1999.90;999.90;;;;;;;;;;5014410;28;20269;-65
2022/10/24 04:34:40;;;;;;;1999.90;999.90;;;;;;;;;;5014297;28;20691;-64
2022/10/24 04:37:25;;;;;;;1999.90;999.90;;;;;;;;;;5014201;28;20206;-65
2022/10/24 04:40:10;;;;;;;1999.90;999.90;;;;;;;;;;5014343;28;20228;-65
2022/10/24 04:42:55;;;;;;;1999.90;999.90;;;;;;;;;;5014032;28;20214;-65
2022/10/24 04:45:40;;;;;;;1999.90;999.90;;;;;;;;;;5013696;28;20226;-65
2022/10/24 04:48:25;;;;;;;1999.90;999.90;;;;;;;;;;5014140;28;20280;-65
2022/10/24 04:51:11;;;;;;;1999.90;999.90;;;;;;;;;;5014087;28;20269;-65
2022/10/24 04:53:56;;;;;;;1999.90;999.90;;;;;;;;;;5014093;28;20206;-66
2022/10/24 04:56:41;;;;;;;1999.90;999.90;;;;;;;;;;5013879;28;20202;-66
2022/10/24 04:59:26;;;;;;;1999.90;999.90;;;;;;;;;;5012577;28;20495;-65
2022/10/24 05:02:11;;;;;;;1999.90;999.90;;;;;;;;;;5013828;28;20288;-65
2022/10/24 05:04:56;;;;;;;1999.90;999.90;;;;;;;;;;5013425;28;20592;-65
2022/10/24 05:07:43;;;;;;;1999.90;999.90;;;;;;;;;;5008769;28;20688;-65
2022/10/24 05:10:27;;;;;;;1999.90;999.90;;;;;;;;;;5013482;28;20708;-66
2022/10/24 05:13:12;;;;;;;1999.90;999.90;;;;;;;;;;5013668;28;20221;-66
2022/10/24 05:15:57;;;;;;;1999.90;999.90;;;;;;;;;;5012077;28;20354;-65
2022/10/24 05:18:42;;;;;;;1999.90;999.90;;;;;;;;;;5013101;28;20642;-65
2022/10/24 05:21:27;;;;;;;1999.90;999.90;;;;;;;;;;5013065;28;20229;-65
2022/10/24 05:24:13;;;;;;;1999.90;999.90;;;;;;;;;;5013233;28;20226;-66
2022/10/24 05:26:58;;;;;;;1999.90;999.90;;;;;;;;;;5013421;28;20288;-65
2022/10/24 05:29:43;;;;;;;1999.90;999.90;;;;;;;;;;5013307;28;20209;-66
2022/10/24 05:32:28;;;;;;;1999.90;999.90;;;;;;;;;;5012997;28;20230;-65
2022/10/24 05:35:13;;;;;;;1999.90;999.90;;;;;;;;;;5013009;28;20753;-65
2022/10/24 05:37:58;;;;;;;1999.90;999.90;;;;;;;;;;5009897;28;20256;-65
2022/10/24 05:40:46;;;;;;;1999.90;999.90;;;;;;;;;;5012975;28;20249;-66
2022/10/24 05:43:31;;;;;;;1999.90;999.90;;;;;;;;;;5012852;28;20209;-66
2022/10/24 05:46:16;;;;;;;1999.90;999.90;;;;;;;;;;5012446;28;20206;-64
2022/10/24 05:49:01;;;;;;;1999.90;999.90;;;;;;;;;;5013034;28;20234;-66
2022/10/24 05:51:45;;;;;;;1999.90;999.90;;;;;;;;;;5010476;28;20237;-65
2022/10/24 05:54:30;;;;;;;1999.90;999.90;;;;;;;;;;5011976;28;20787;-66
2022/10/24 05:57:17;;;;;;;1999.90;999.90;;;;;;;;;;5030650;28;20212;-64
2022/10/24 06:00:02;;;;;;;1999.90;999.90;;;;;;;;;;5009597;28;20241;-66
2022/10/24 06:02:47;;;;;;;1999.90;999.90;;;;;;;;;;5021557;28;20261;-66
2022/10/24 06:05:32;;;;;;;1999.90;999.90;;;;;;;;;;5030082;28;20597;-65
2022/10/24 06:08:17;;;;;;;1999.90;999.90;;;;;;;;;;5030301;28;21010;-63
2022/10/24 06:11:02;;;;;;;1999.90;999.90;;;;;;;;;;5019658;28;20594;-66
2022/10/24 06:13:49;;;;;;;1999.90;999.90;;;;;;;;;;5011835;28;20233;-66
2022/10/24 06:16:34;;;;;;;1999.90;999.90;;;;;;;;;;5011993;28;20214;-66
2022/10/24 06:19:20;;;;;;;1999.90;999.90;;;;;;;;;;5019957;28;20275;-66
2022/10/24 06:22:07;;;;;;;1999.90;999.90;;;;;;;;;;5021284;28;20714;-67
2022/10/24 06:24:52;;;;;;;1999.90;999.90;;;;;;;;;;5004560;28;20351;-68
2022/10/24 06:27:37;;;;;;;1999.90;999.90;;;;;;;;;;5010570;28;20223;-67
2022/10/24 06:30:23;;;;;;;1999.90;999.90;;;;;;;;;;4999579;28;20751;-68
2022/10/24 06:33:08;;;;;;;1999.90;999.90;;;;;;;;;;4990931;28;20210;-68
2022/10/24 06:35:53;;;;;;;1999.90;999.90;;;;;;;;;;4991963;28;20710;-68
2022/10/24 06:38:38;;;;;;;1999.90;999.90;;;;;;;;;;4992481;28;20630;-68
2022/10/24 06:41:23;;;;;;;1999.90;999.90;;;;;;;;;;4992583;28;20237;-68
2022/10/24 06:44:08;;;;;;;1999.90;999.90;;;;;;;;;;4992555;28;20247;-68
2022/10/24 06:46:55;;;;;;;1999.90;999.90;;;;;;;;;;4992374;28;20222;-68
2022/10/24 06:49:40;;;;;;;1999.90;999.90;;;;;;;;;;4992329;28;20214;-68
2022/10/24 06:52:25;;;;;;;1999.90;999.90;;;;;;;;;;4992496;28;20251;-68
2022/10/24 06:55:11;;;;;;;1999.90;999.90;;;;;;;;;;4992280;28;20700;-68
2022/10/24 06:57:56;;;;;;;1999.90;999.90;;;;;;;;;;4992536;28;20264;-68
2022/10/24 07:00:40;;;;;;;1999.90;999.90;;;;;;;;;;4991412;28;20426;-68
2022/10/24 07:03:26;;;;;;;1999.90;999.90;;;;;;;;;;5011908;28;20206;-68
2022/10/24 07:06:15;;;;;;;1999.90;999.90;;;;;;;;;;5008528;28;20242;-67
2022/10/24 07:09:01;;;;;;;1999.90;999.90;;;;;;;;;;5004373;28;20575;-67
2022/10/24 07:11:46;;;;;;;1999.90;999.90;;;;;;;;;;5012877;28;20365;-68
2022/10/24 07:14:31;;;;;;;1999.90;999.90;;;;;;;;;;5015626;28;20272;-68
2022/10/24 07:17:16;;;;;;;1999.90;999.90;;;;;;;;;;5015622;28;20207;-67
2022/10/24 07:20:02;;;;;;;1999.90;999.90;;;;;;;;;;5015674;28;20214;-68
2022/10/24 07:22:47;;;;;;;1999.90;999.90;;;;;;;;;;5003640;28;20211;-68
2022/10/24 07:25:32;;;;;;;1999.90;999.90;;;;;;;;;;5010620;28;20468;-67
2022/10/24 07:28:17;;;;;;;1999.90;999.90;;;;;;;;;;5001996;28;20211;-67
2022/10/24 07:31:02;;;;;;;1999.90;999.90;;;;;;;;;;5005901;28;20418;-67
2022/10/24 07:33:47;;;;;;;1999.90;999.90;;;;;;;;;;5005073;28;20218;-68
2022/10/24 07:36:33;;;;;;;1999.90;999.90;;;;;;;;;;5010768;28;20202;-67
2022/10/24 07:39:18;;;;;;;1999.90;999.90;;;;;;;;;;5008556;28;20202;-68
2022/10/24 07:42:03;;;;;;;1999.90;999.90;;;;;;;;;;5008937;28;20230;-67
2022/10/24 07:44:48;;;;;;;1999.90;999.90;;;;;;;;;;5006911;28;20293;-67
2022/10/24 07:47:33;;;;;;;1999.90;999.90;;;;;;;;;;5007520;28;20724;-67
2022/10/24 07:50:18;;;;;;;1999.90;999.90;;;;;;;;;;5006262;28;20596;-68
2022/10/24 07:53:04;;;;;;;1999.90;999.90;;;;;;;;;;5003503;28;20219;-67
2022/10/24 07:55:49;;;;;;;1999.90;999.90;;;;;;;;;;4998523;28;20223;-68
2022/10/24 07:58:35;;;;;;;1999.90;999.90;;;;;;;;;;5002335;28;20219;-68
2022/10/24 08:01:20;;;;;;;1999.90;999.90;;;;;;;;;;5007284;28;20246;-68
2022/10/24 08:04:05;;;;;;;1999.90;999.90;;;;;;;;;;5000120;28;20331;-68
2022/10/24 08:06:50;;;;;;;1999.90;999.90;;;;;;;;;;5005887;28;20614;-68
2022/10/24 08:09:38;;;;;;;1999.90;999.90;;;;;;;;;;5004373;28;20214;-68
2022/10/24 08:12:23;;;;;;;1999.90;999.90;;;;;;;;;;5001016;28;21010;-67
2022/10/24 08:15:08;;;;;;;1999.90;999.90;;;;;;;;;;4998239;28;20776;-68
2022/10/24 08:17:53;;;;;;;1999.90;999.90;;;;;;;;;;5000550;28;20717;-68
2022/10/24 08:20:38;;;;;;;1999.90;999.90;;;;;;;;;;5002851;28;20246;-68
2022/10/24 08:23:23;;;;;;;1999.90;999.90;;;;;;;;;;5005248;28;20667;-67
2022/10/24 08:26:10;;;;;;;1999.90;999.90;;;;;;;;;;5001734;28;20234;-67
2022/10/24 08:28:56;;;;;;;1999.90;999.90;;;;;;;;;;5005759;28;20218;-68
2022/10/24 08:31:41;;;;;;;1999.90;999.90;;;;;;;;;;5004569;28;20448;-66
2022/10/24 08:34:26;;;;;;;1999.90;999.90;;;;;;;;;;5003852;28;20346;-68
2022/10/24 08:37:11;;;;;;;1999.90;999.90;;;;;;;;;;5003927;28;20720;-68
2022/10/24 08:39:56;;;;;;;1999.90;999.90;;;;;;;;;;4998509;28;20211;-69
2022/10/24 08:42:43;;;;;;;1999.90;999.90;;;;;;;;;;5001954;28;20238;-68
2022/10/24 08:45:30;;;;;;;1999.90;999.90;;;;;;;;;;5004049;28;20302;-69
2022/10/24 08:48:19;;;;;;;1999.90;999.90;;;;;;;;;;5001608;28;20203;-68
2022/10/24 08:51:10;;;;;;;1999.90;999.90;;;;;;;;;;5004849;28;20634;-68
2022/10/24 08:53:57;;;;;;;1999.90;999.90;;;;;;;;;;5001711;28;20215;-68
2022/10/24 08:56:42;;;;;;;1999.90;999.90;;;;;;;;;;5006674;28;20685;-68
2022/10/24 08:59:30;;;;;;;1999.90;999.90;;;;;;;;;;5001934;28;20211;-66
2022/10/24 09:02:18;;;;;;;1999.90;999.90;;;;;;;;;;5005757;28;20590;-68
2022/10/24 09:05:09;;;;;;;1999.90;999.90;;;;;;;;;;5000323;28;20693;-67
2022/10/24 09:08:00;;;;;;;1999.90;999.90;;;;;;;;;;5005741;28;20576;-67
2022/10/24 09:10:48;;;;;;;1999.90;999.90;;;;;;;;;;5005100;28;20231;-67
2022/10/24 09:13:35;;;;;;;1999.90;999.90;;;;;;;;;;5002496;28;20199;-68
2022/10/24 09:16:23;;;;;;;1999.90;999.90;;;;;;;;;;5003609;28;20205;-67
2022/10/24 09:19:10;;;;;;;1999.90;999.90;;;;;;;;;;5009951;28;20219;-68
2022/10/24 09:21:56;;;;;;;1999.90;999.90;;;;;;;;;;4997025;28;20817;-65
2022/10/24 09:24:44;;;;;;;1999.90;999.90;;;;;;;;;;4997213;28;20455;-68
2022/10/24 09:27:29;;;;;;;1999.90;999.90;;;;;;;;;;5008036;28;20207;-68
2022/10/24 09:30:16;;;;;;;1999.90;999.90;;;;;;;;;;4999556;28;20229;-68
2022/10/24 09:33:11;;;;;;;1999.90;999.90;;;;;;;;;;5004834;28;20334;-68
2022/10/24 09:35:58;;;;;;;1999.90;999.90;;;;;;;;;;5012426;28;20789;-67
2022/10/24 09:38:44;;;;;;;1999.90;999.90;;;;;;;;;;5013319;28;20210;-68
2022/10/24 09:41:32;;;;;;;1999.90;999.90;;;;;;;;;;4993578;28;20294;-68
2022/10/24 09:44:28;;;;;;;1999.90;999.90;;;;;;;;;;4991937;28;20529;-68
2022/10/24 09:47:23;;;;;;;1999.90;999.90;;;;;;;;;;5009230;28;20266;-68
2022/10/24 09:50:18;;;;;;;1999.90;999.90;;;;;;;;;;5011743;28;20226;-68
2022/10/24 09:53:04;;;;;;;1999.90;999.90;;;;;;;;;;5012963;28;20207;-69
2022/10/24 09:55:50;;;;;;;1999.90;999.90;;;;;;;;;;5012654;28;20564;-68
2022/10/24 09:58:35;;;;;;;1999.90;999.90;;;;;;;;;;5015350;28;20858;-69
2022/10/24 10:01:21;;;;;;;1999.90;999.90;;;;;;;;;;5013438;28;20238;-69
2022/10/24 10:04:06;;;;;;;1999.90;999.90;;;;;;;;;;5002448;28;20215;-68
2022/10/24 10:06:52;;;;;;;1999.90;999.90;;;;;;;;;;5019157;28;20235;-69
2022/10/24 10:09:41;;;;;;;1999.90;999.90;;;;;;;;;;5012733;28;20568;-69
2022/10/24 10:12:26;;;;;;;1999.90;999.90;;;;;;;;;;5011315;28;20238;-68
2022/10/24 10:15:17;;;;;;;1999.90;999.90;;;;;;;;;;5015430;28;20209;-67
2022/10/24 10:18:04;;;;;;;1999.90;999.90;;;;;;;;;;5011301;28;20297;-69
2022/10/24 10:20:58;;;;;;;1999.90;999.90;;;;;;;;;;5031849;28;20233;-69
2022/10/24 10:23:45;;;;;;;1999.90;999.90;;;;;;;;;;5032413;28;20257;-69
2022/10/24 10:26:41;;;;;;;1999.90;999.90;;;;;;;;;;5033180;28;20230;-69
2022/10/24 10:29:27;;;;;;;1999.90;999.90;;;;;;;;;;5032062;28;20214;-69
2022/10/24 10:32:17;;;;;;;1999.90;999.90;;;;;;;;;;5031644;28;20226;-69
2022/10/24 10:35:07;;;;;;;1999.90;999.90;;;;;;;;;;5022305;28;20716;-69
2022/10/24 10:37:57;;;;;;;1999.90;999.90;;;;;;;;;;5028093;28;20194;-69
2022/10/24 10:40:45;;;;;;;1999.90;999.90;;;;;;;;;;5012091;28;20223;-69
2022/10/24 10:43:33;;;;;;;1999.90;999.90;;;;;;;;;;5018394;28;20569;-69
2022/10/24 10:46:23;;;;;;;1999.90;999.90;;;;;;;;;;5023342;28;20221;-69
2022/10/24 10:49:13;;;;;;;1999.90;999.90;;;;;;;;;;5025797;28;20218;-69
2022/10/24 10:52:02;;;;;;;1999.90;999.90;;;;;;;;;;5025854;28;20517;-69
2022/10/24 10:54:58;;;;;;;1999.90;999.90;;;;;;;;;;5022902;28;20253;-69
2022/10/24 10:57:47;;;;;;;1999.90;999.90;;;;;;;;;;5023927;28;20268;-68
2022/10/24 11:00:35;;;;;;;1999.90;999.90;;;;;;;;;;5017025;28;20230;-67
2022/10/24 11:03:25;;;;;;;1999.90;999.90;;;;;;;;;;5024792;28;20297;-68
2022/10/24 11:06:17;;;;;;;1999.90;999.90;;;;;;;;;;5017919;28;20767;-66
2022/10/24 11:09:22;;;;;;;1999.90;999.90;;;;;;;;;;5024247;28;20261;-68
2022/10/24 11:12:09;;;;;;;1999.90;999.90;;;;;;;;;;5015092;28;20220;-68
2022/10/24 11:14:57;;;;;;;1999.90;999.90;;;;;;;;;;5028061;28;20206;-68
2022/10/24 11:17:45;;;;;;;1999.90;999.90;;;;;;;;;;5027845;28;20202;-68
2022/10/24 11:20:32;;;;;;;1999.90;999.90;;;;;;;;;;5023191;28;20692;-68
2022/10/24 11:23:19;;;;;;;1999.90;999.90;;;;;;;;;;5011680;28;20207;-68
2022/10/24 11:26:07;;;;;;;1999.90;999.90;;;;;;;;;;5027151;28;20647;-68
2022/10/24 11:28:56;;;;;;;1999.90;999.90;;;;;;;;;;5021471;28;20693;-68
2022/10/24 11:31:45;;;;;;;1999.90;999.90;;;;;;;;;;5013877;28;20800;-68
2022/10/24 11:34:33;;;;;;;1999.90;999.90;;;;;;;;;;5013115;28;20337;-68
2022/10/24 11:37:20;;;;;;;1999.90;999.90;;;;;;;;;;5022084;28;20198;-68
2022/10/24 11:40:09;;;;;;;1999.90;999.90;;;;;;;;;;5030209;28;20326;-68
2022/10/24 11:42:56;;;;;;;1999.90;999.90;;;;;;;;;;5021100;28;20933;-68
2022/10/24 11:45:44;;;;;;;1999.90;999.90;;;;;;;;;;5017441;28;20210;-67
2022/10/24 11:48:33;;;;;;;1999.90;999.90;;;;;;;;;;5020303;28;20209;-68
2022/10/24 11:51:19;;;;;;;1999.90;999.90;;;;;;;;;;5015881;28;20877;-68
2022/10/24 11:54:06;;;;;;;1999.90;999.90;;;;;;;;;;5027915;28;20256;-68
2022/10/24 11:56:53;;;;;;;1999.90;999.90;;;;;;;;;;5024989;28;20210;-67
2022/10/24 11:59:38;;;;;;;1999.90;999.90;;;;;;;;;;5026218;28;20206;-67
2022/10/24 12:02:34;;;;;;;1999.90;999.90;;;;;;;;;;5030816;28;20429;-69
2022/10/24 12:05:26;;;;;;;1999.90;999.90;;;;;;;;;;5033517;28;20420;-68
2022/10/24 12:08:28;;;;;;;1999.90;999.90;;;;;;;;;;5033695;28;20206;-68
2022/10/24 12:11:28;;;;;;;1999.90;999.90;;;;;;;;;;5033616;28;20353;-69
2022/10/24 12:14:31;;;;;;;1999.90;999.90;;;;;;;;;;5033289;28;20803;-67
2022/10/24 12:17:31;;;;;;;1999.90;999.90;;;;;;;;;;5033490;28;20576;-68
2022/10/24 12:20:17;;;;;;;1999.90;999.90;;;;;;;;;;5033507;28;20278;-68
2022/10/24 12:23:04;;;;;;;1999.90;999.90;;;;;;;;;;5033586;28;20201;-68
2022/10/24 12:26:01;;;;;;;1999.90;999.90;;;;;;;;;;5030686;28;20836;-68
2022/10/24 12:28:53;;;;;;;1999.90;999.90;;;;;;;;;;5029716;28;20213;-68
2022/10/24 12:31:38;;;;;;;1999.90;999.90;;;;;;;;;;5026827;28;20230;-68
2022/10/24 12:34:30;;;;;;;1999.90;999.90;;;;;;;;;;5026148;28;20209;-68
2022/10/24 12:37:39;;;;;;;1999.90;999.90;;;;;;;;;;5025821;28;20198;-69
2022/10/24 12:40:57;;;;;;;1999.90;999.90;;;;;;;;;;5010356;28;20304;-68
2022/10/24 12:43:46;;;;;;;1999.90;999.90;;;;;;;;;;4972796;28;20268;-68
2022/10/24 12:46:49;;;;;;;1999.90;999.90;;;;;;;;;;4977906;28;20220;-68
2022/10/24 12:49:35;;;;;;;1999.90;999.90;;;;;;;;;;5025339;28;20217;-68
2022/10/24 12:52:39;;;;;;;1999.90;999.90;;;;;;;;;;5040516;28;20593;-68
2022/10/24 12:55:28;;;;;;;1999.90;999.90;;;;;;;;;;5026434;28;20280;-69
2022/10/24 12:58:21;;;;;;;1999.90;999.90;;;;;;;;;;5032366;28;20780;-68
2022/10/24 13:01:10;;;;;;;1999.90;999.90;;;;;;;;;;5033963;28;20669;-68
2022/10/24 13:04:09;;;;;;;1999.90;999.90;;;;;;;;;;5034684;28;20280;-68
2022/10/24 13:07:13;;;;;;;1999.90;999.90;;;;;;;;;;5009205;28;20237;-68
2022/10/24 13:10:03;;;;;;;1999.90;999.90;;;;;;;;;;5023467;28;20225;-68
2022/10/24 13:12:58;;;;;;;1999.90;999.90;;;;;;;;;;5025198;28;20411;-67
2022/10/24 13:15:46;;;;;;;1999.90;999.90;;;;;;;;;;5032351;28;20206;-68
2022/10/24 13:18:40;;;;;;;1999.90;999.90;;;;;;;;;;5026011;28;20206;-68
2022/10/24 13:21:27;;;;;;;1999.90;999.90;;;;;;;;;;5035010;28;20225;-68
2022/10/24 13:24:21;;;;;;;1999.90;999.90;;;;;;;;;;5032252;28;20698;-67
2022/10/24 13:27:24;;;;;;;1999.90;999.90;;;;;;;;;;5032768;28;20231;-68
2022/10/24 13:30:31;;;;;;;1999.90;999.90;;;;;;;;;;5028525;28;20208;-68
2022/10/24 13:33:32;;;;;;;1999.90;999.90;;;;;;;;;;5031325;28;20273;-68
2022/10/24 13:36:21;;;;;;;1999.90;999.90;;;;;;;;;;5033236;28;20213;-67
2022/10/24 13:39:10;;;;;;;1999.90;999.90;;;;;;;;;;5017735;28;20211;-68
2022/10/24 13:42:00;;;;;;;1999.90;999.90;;;;;;;;;;5021074;28;20219;-68
2022/10/24 13:44:47;;;;;;;1999.90;999.90;;;;;;;;;;5027003;28;20213;-68
2022/10/24 13:47:33;;;;;;;1999.90;999.90;;;;;;;;;;5024530;28;20218;-68
2022/10/24 13:50:20;;;;;;;1999.90;999.90;;;;;;;;;;5024136;28;20341;-68
2022/10/24 13:53:13;;;;;;;1999.90;999.90;;;;;;;;;;5018279;28;20690;-68
2022/10/24 13:55:58;;;;;;;1999.90;999.90;;;;;;;;;;5013465;28;20202;-67
2022/10/24 13:58:44;;;;;;;1999.90;999.90;;;;;;;;;;5012027;28;20563;-68
2022/10/24 14:01:30;;;;;;;1999.90;999.90;;;;;;;;;;5023661;28;20242;-68
2022/10/24 14:04:15;;;;;;;1999.90;999.90;;;;;;;;;;5027783;28;20336;-68
2022/10/24 14:07:01;;;;;;;1999.90;999.90;;;;;;;;;;5023537;28;20280;-69
2022/10/24 14:09:52;;;;;;;1999.90;999.90;;;;;;;;;;5019190;28;20209;-68
2022/10/24 14:12:39;;;;;;;1999.90;999.90;;;;;;;;;;5012110;28;20294;-68
2022/10/24 14:15:25;;;;;;;1999.90;999.90;;;;;;;;;;5014174;28;21026;-69
2022/10/24 14:18:13;;;;;;;1999.90;999.90;;;;;;;;;;5012901;28;20281;-68
2022/10/24 14:21:00;;;;;;;1999.90;999.90;;;;;;;;;;5015142;28;20352;-68
2022/10/24 14:23:53;;;;;;;1999.90;999.90;;;;;;;;;;5012177;28;20910;-68
2022/10/24 14:26:40;;;;;;;1999.90;999.90;;;;;;;;;;5021208;28;20591;-68
2022/10/24 14:29:27;;;;;;;1999.90;999.90;;;;;;;;;;5011429;28;20256;-68
2022/10/24 14:32:14;;;;;;;1999.90;999.90;;;;;;;;;;5013316;28;20234;-69
2022/10/24 14:34:59;;;;;;;1999.90;999.90;;;;;;;;;;5018181;28;20210;-68
2022/10/24 14:37:44;;;;;;;1999.90;999.90;;;;;;;;;;5018095;28;20206;-68
2022/10/24 14:40:30;;;;;;;1999.90;999.90;;;;;;;;;;5026917;28;20309;-68
2022/10/24 14:43:18;;;;;;;1999.90;999.90;;;;;;;;;;5025331;28;20749;-67
2022/10/24 14:46:18;;;;;;;1999.90;999.90;;;;;;;;;;5015632;28;20203;-67
2022/10/24 14:49:18;;;;;;;1999.90;999.90;;;;;;;;;;5020775;28;20213;-68
2022/10/24 14:52:08;;;;;;;1999.90;999.90;;;;;;;;;;5016514;28;20791;-67
2022/10/24 14:54:57;;;;;;;1999.90;999.90;;;;;;;;;;5028047;28;20234;-67
2022/10/24 14:57:46;;;;;;;1999.90;999.90;;;;;;;;;;5023609;28;20837;-68
2022/10/24 15:00:37;;;;;;;1999.90;999.90;;;;;;;;;;5027718;28;20221;-68
2022/10/24 15:03:22;;;;;;;1999.90;999.90;;;;;;;;;;5016631;28;20210;-67
2022/10/24 15:06:08;;;;;;;1999.90;999.90;;;;;;;;;;5016863;28;20210;-67
2022/10/24 15:09:01;;;;;;;1999.90;999.90;;;;;;;;;;5025346;28;20244;-68
2022/10/24 15:11:47;;;;;;;1999.90;999.90;;;;;;;;;;5019086;28;20440;-68
2022/10/24 15:14:36;;;;;;;1999.90;999.90;;;;;;;;;;5025483;28;20257;-68
2022/10/24 15:17:26;;;;;;;1999.90;999.90;;;;;;;;;;5017104;28;20218;-70
2022/10/24 15:20:13;;;;;;;1999.90;999.90;;;;;;;;;;5017853;28;20249;-67
2022/10/24 15:22:59;;;;;;;1999.90;999.90;;;;;;;;;;5028229;28;20221;-68
2022/10/24 15:25:44;;;;;;;1999.90;999.90;;;;;;;;;;5023709;28;20214;-66
2022/10/24 15:28:36;;;;;;;1999.90;999.90;;;;;;;;;;5024703;28;20269;-67
2022/10/24 15:31:21;;;;;;;1999.90;999.90;;;;;;;;;;5018085;28;20407;-67
2022/10/24 15:34:10;;;;;;;1999.90;999.90;;;;;;;;;;5021646;28;20209;-68
2022/10/24 15:36:56;;;;;;;1999.90;999.90;;;;;;;;;;5015657;28;20321;-67
2022/10/24 15:39:41;;;;;;;1999.90;999.90;;;;;;;;;;5023688;28;20210;-68
2022/10/24 15:42:26;;;;;;;1999.90;999.90;;;;;;;;;;5021916;28;20245;-69
2022/10/24 15:45:13;;;;;;;1999.90;999.90;;;;;;;;;;5022826;28;20222;-68
2022/10/24 15:47:58;;;;;;;1999.90;999.90;;;;;;;;;;5028167;28;20296;-68
2022/10/24 15:50:45;;;;;;;1999.90;999.90;;;;;;;;;;5024558;28;20297;-68
2022/10/24 15:53:30;;;;;;;1999.90;999.90;;;;;;;;;;5025698;28;20210;-69
2022/10/24 15:56:15;;;;;;;1999.90;999.90;;;;;;;;;;5020715;28;20581;-68
2022/10/24 15:59:00;;;;;;;1999.90;999.90;;;;;;;;;;5023527;28;20257;-69
2022/10/24 16:01:47;;;;;;;1999.90;999.90;;;;;;;;;;5022854;28;20238;-68
2022/10/24 16:04:32;;;;;;;1999.90;999.90;;;;;;;;;;5020474;28;20202;-68
2022/10/24 16:07:19;;;;;;;1999.90;999.90;;;;;;;;;;5019037;28;20803;-67
2022/10/24 16:10:04;;;;;;;1999.90;999.90;;;;;;;;;;5024130;28;20202;-69
2022/10/24 16:12:50;;;;;;;1999.90;999.90;;;;;;;;;;5031072;28;20577;-69
2022/10/24 16:15:36;;;;;;;1999.90;999.90;;;;;;;;;;5029676;28;20221;-67
2022/10/24 16:18:21;;;;;;;1999.90;999.90;;;;;;;;;;5035615;28;20212;-68
2022/10/24 16:21:06;;;;;;;1999.90;999.90;;;;;;;;;;5016174;28;20251;-69
2022/10/24 16:23:53;;;;;;;1999.90;999.90;;;;;;;;;;5037234;28;20349;-68
2022/10/24 16:26:39;;;;;;;1999.90;999.90;;;;;;;;;;5018484;28;20362;-69
2022/10/24 16:29:24;;;;;;;1999.90;999.90;;;;;;;;;;5026870;28;20197;-69
2022/10/24 16:32:09;;;;;;;1999.90;999.90;;;;;;;;;;5037784;28;20735;-68
2022/10/24 16:34:56;;;;;;;1999.90;999.90;;;;;;;;;;5031626;28;20229;-67
2022/10/24 16:37:41;;;;;;;1999.90;999.90;;;;;;;;;;5034018;28;20210;-67
2022/10/24 16:40:28;;;;;;;1999.90;999.90;;;;;;;;;;5032802;28;20256;-68
2022/10/24 16:43:15;;;;;;;1999.90;999.90;;;;;;;;;;5033791;28;20625;-68
2022/10/24 16:46:01;;;;;;;1999.90;999.90;;;;;;;;;;5033728;28;20205;-68
2022/10/24 16:48:46;;;;;;;1999.90;999.90;;;;;;;;;;5033764;28;20229;-67
2022/10/24 16:51:31;;;;;;;1999.90;999.90;;;;;;;;;;5015365;28;20270;-67
2022/10/24 16:54:17;;;;;;;1999.90;999.90;;;;;;;;;;5023456;28;20575;-68
2022/10/24 16:57:04;;;;;;;1999.90;999.90;;;;;;;;;;5021996;28;20283;-68
2022/10/24 16:59:49;;;;;;;1999.90;999.90;;;;;;;;;;5021446;28;20206;-66
2022/10/24 17:02:34;;;;;;;1999.90;999.90;;;;;;;;;;5029109;28;20608;-68
2022/10/24 17:05:19;;;;;;;1999.90;999.90;;;;;;;;;;5014578;28;20337;-68
2022/10/24 17:08:05;;;;;;;1999.90;999.90;;;;;;;;;;5026890;28;20214;-68
2022/10/24 17:10:50;;;;;;;1999.90;999.90;;;;;;;;;;5024378;28;20288;-68
2022/10/24 17:13:36;;;;;;;1999.90;999.90;;;;;;;;;;5028267;28;20269;-68
2022/10/24 17:16:22;;;;;;;1999.90;999.90;;;;;;;;;;5026809;28;20203;-67
2022/10/24 17:19:07;;;;;;;1999.90;999.90;;;;;;;;;;5028006;28;20201;-68
2022/10/24 17:21:52;;;;;;;1999.90;999.90;;;;;;;;;;5022548;28;20225;-66
2022/10/24 17:24:37;;;;;;;1999.90;999.90;;;;;;;;;;5021871;28;20576;-68
2022/10/24 17:27:22;;;;;;;1999.90;999.90;;;;;;;;;;5026288;28;20698;-68
2022/10/24 17:30:11;;;;;;;1999.90;999.90;;;;;;;;;;5031663;28;20214;-68
2022/10/24 17:32:56;;;;;;;1999.90;999.90;;;;;;;;;;5032263;28;20473;-68
2022/10/24 17:35:45;;;;;;;1999.90;999.90;;;;;;;;;;5032831;28;20206;-67
2022/10/24 17:38:36;;;;;;;1999.90;999.90;;;;;;;;;;5033044;28;20194;-68
2022/10/24 17:41:22;;;;;;;1999.90;999.90;;;;;;;;;;5032524;28;20337;-68
2022/10/24 17:44:12;;;;;;;1999.90;999.90;;;;;;;;;;5030296;28;20208;-67
2022/10/24 17:46:58;;;;;;;1999.90;999.90;;;;;;;;;;5013144;28;20708;-67
2022/10/24 17:49:43;;;;;;;1999.90;999.90;;;;;;;;;;5013012;28;20260;-68
2022/10/24 17:52:29;;;;;;;1999.90;999.90;;;;;;;;;;5011982;28;20412;-68
2022/10/24 17:55:17;;;;;;;1999.90;999.90;;;;;;;;;;5012744;28;20514;-69
2022/10/24 17:58:02;;;;;;;1999.90;999.90;;;;;;;;;;5012856;28;20199;-69
2022/10/24 18:00:47;;;;;;;1999.90;999.90;;;;;;;;;;5012710;28;20249;-69
2022/10/24 18:03:33;;;;;;;1999.90;999.90;;;;;;;;;;5012518;28;20322;-69
2022/10/24 18:06:19;;;;;;;1999.90;999.90;;;;;;;;;;5012484;28;20207;-69
2022/10/24 18:09:04;;;;;;;1999.90;999.90;;;;;;;;;;5012455;28;20357;-68
2022/10/24 18:11:48;;;;;;;1999.90;999.90;;;;;;;;;;5012595;28;20311;-68
2022/10/24 18:14:35;;;;;;;1999.90;999.90;;;;;;;;;;5019040;28;20260;-69
2022/10/24 18:17:20;;;;;;;1999.90;999.90;;;;;;;;;;5032356;28;20205;-68
2022/10/24 18:20:07;;;;;;;1999.90;999.90;;;;;;;;;;5032315;28;20282;-68
2022/10/24 18:22:52;;;;;;;1999.90;999.90;;;;;;;;;;5012514;28;20281;-68
2022/10/24 18:25:37;;;;;;;1999.90;999.90;;;;;;;;;;5011115;28;20412;-68
2022/10/24 18:28:22;;;;;;;1999.90;999.90;;;;;;;;;;5012293;28;20326;-68
2022/10/24 18:31:08;;;;;;;1999.90;999.90;;;;;;;;;;5012381;28;20218;-68
2022/10/24 18:33:53;;;;;;;1999.90;999.90;;;;;;;;;;5012434;28;20676;-68
2022/10/24 18:36:40;;;;;;;1999.90;999.90;;;;;;;;;;5012204;28;20198;-68
2022/10/24 18:39:25;;;;;;;1999.90;999.90;;;;;;;;;;5012332;28;20716;-68
2022/10/24 18:42:16;;;;;;;1999.90;999.90;;;;;;;;;;5012210;28;20276;-68
2022/10/24 18:45:02;;;;;;;1999.90;999.90;;;;;;;;;;5011530;28;20891;-69
2022/10/24 18:47:47;;;;;;;1999.90;999.90;;;;;;;;;;5012151;28;20212;-68
2022/10/24 18:50:34;;;;;;;1999.90;999.90;;;;;;;;;;5012199;28;20229;-68
2022/10/24 18:53:22;;;;;;;1999.90;999.90;;;;;;;;;;5012169;28;20421;-68
2022/10/24 18:56:08;;;;;;;1999.90;999.90;;;;;;;;;;5012258;28;20210;-69
2022/10/24 18:58:56;;;;;;;1999.90;999.90;;;;;;;;;;5012187;28;20333;-67
2022/10/24 19:01:42;;;;;;;1999.90;999.90;;;;;;;;;;5011927;28;20764;-68
2022/10/24 19:04:27;;;;;;;1999.90;999.90;;;;;;;;;;5015409;28;20259;-69
2022/10/24 19:07:12;;;;;;;1999.90;999.90;;;;;;;;;;5016121;28;20210;-68
2022/10/24 19:09:58;;;;;;;1999.90;999.90;;;;;;;;;;5015792;28;20229;-68
2022/10/24 19:12:43;;;;;;;1999.90;999.90;;;;;;;;;;5015629;28;20234;-69
2022/10/24 19:15:31;;;;;;;1999.90;999.90;;;;;;;;;;5030101;28;20272;-69
2022/10/24 19:18:16;;;;;;;1999.90;999.90;;;;;;;;;;5035653;28;20210;-68
2022/10/24 19:21:03;;;;;;;1999.90;999.90;;;;;;;;;;5034806;28;20360;-68
2022/10/24 19:23:49;;;;;;;1999.90;999.90;;;;;;;;;;5035475;28;20215;-68
2022/10/24 19:26:35;;;;;;;1999.90;999.90;;;;;;;;;;5035323;28;20252;-69
2022/10/24 19:29:20;;;;;;;1999.90;999.90;;;;;;;;;;5035221;28;20730;-68
2022/10/24 19:32:05;;;;;;;1999.90;999.90;;;;;;;;;;5035055;28;20225;-68
2022/10/24 19:34:51;;;;;;;1999.90;999.90;;;;;;;;;;5034793;28;20212;-67